Time;durP1;ratioP1;P1;durP2;ratioP2;P2;SDS_P1;SDS_P2;PMS_P1;PMS_P2;Temp;Humidity;BMP_temperature;BMP_pressure;BME280_temperature;BME280_humidity;BME280_pressure;Samples;Min_cycle;Max_cycle;Signal;HPM_P1;HPM_P2
2023/04/21 00:01:16;;;;;;;;;;;;;;;13.48;64.19;100516.13;4953978;28;19919;-80
2023/04/21 00:04:08;;;;;;;;;;;;;;;13.41;64.13;100523.31;4963788;28;19919;-79
2023/04/21 00:07:03;;;;;;;;;;;;;;;13.40;64.95;100514.31;4954043;28;19926;-78
2023/04/21 00:09:55;;;;;;;;;;;;;;;13.37;64.49;100511.44;4956584;29;19918;-79
2023/04/21 00:12:47;;;;;;;;;;;;;;;13.40;64.39;100514.31;4966468;28;19918;-77
2023/04/21 00:15:39;;;;;;;;;;;;;;;13.46;63.85;100512.94;4951992;28;20381;-79
2023/04/21 00:18:28;;;;;;;;;;;;;;;13.45;63.98;100510.56;4967094;28;20301;-80
2023/04/21 00:21:21;;;;;;;;;;;;;;;13.43;63.52;100513.63;5017824;23;19918;-80
2023/04/21 00:24:10;;;;;;;;;;;;;;;13.34;64.00;100510.19;4927886;29;19928;-81
2023/04/21 00:26:57;;;;;;;;;;;;;;;13.23;64.78;100503.56;4939943;29;19927;-81
2023/04/21 00:29:49;;;;;;;;;;;;;;;13.16;65.46;100500.59;4937163;29;20306;-82
2023/04/21 00:32:41;;;;;;;;;;;;;;;13.06;65.31;100495.53;4916261;29;19927;-81
2023/04/21 00:35:33;;;;;;;;;;;;;;;13.12;65.16;100491.47;4918474;29;19919;-81
2023/04/21 00:38:25;;;;;;;;;;;;;;;13.17;65.19;100485.81;4921719;29;19919;-81
2023/04/21 00:41:17;;;;;;;;;;;;;;;13.30;64.16;100484.72;4915883;29;19919;-81
2023/04/21 00:44:09;;;;;;;;;;;;;;;13.34;63.72;100476.63;4914849;29;19923;-81
2023/04/21 00:47:01;;;;;;;;;;;;;;;13.18;64.38;100477.28;4922993;29;19923;-81
2023/04/21 00:49:53;;;;;;;;;;;;;;;13.10;64.99;100480.09;4924565;29;19919;-82
2023/04/21 00:52:45;;;;;;;;;;;;;;;13.09;65.31;100484.75;4910005;29;20383;-81
2023/04/21 00:55:35;;;;;;;;;;;;;;;13.06;65.35;100482.66;4907081;29;19920;-80
2023/04/21 00:58:25;;;;;;;;;;;;;;;13.08;65.21;100487.81;4917389;29;20291;-81
2023/04/21 01:01:17;;;;;;;;;;;;;;;13.06;65.91;100484.59;4928824;29;19919;-81
2023/04/21 01:04:09;;;;;;;;;;;;;;;13.17;66.01;100483.88;4920822;29;19920;-82
2023/04/21 01:07:00;;;;;;;;;;;;;;;13.18;66.64;100482.75;4920743;29;19923;-82
2023/04/21 01:09:50;;;;;;;;;;;;;;;13.18;66.13;100487.41;4933545;29;19919;-82
2023/04/21 01:12:49;;;;;;;;;;;;;;;13.12;66.08;100483.28;4901693;29;20383;-83
2023/04/21 01:15:41;;;;;;;;;;;;;;;13.13;66.18;100482.97;4906465;29;19920;-82
2023/04/21 01:18:33;;;;;;;;;;;;;;;13.13;66.62;100485.69;4915329;29;19919;-82
2023/04/21 01:21:25;;;;;;;;;;;;;;;13.16;66.32;100486.94;4912708;29;19919;-82
2023/04/21 01:24:18;;;;;;;;;;;;;;;13.15;66.12;100491.63;4914702;29;19923;-82
2023/04/21 01:27:14;;;;;;;;;;;;;;;13.11;66.30;100481.66;4919844;29;19923;-82
2023/04/21 01:30:06;;;;;;;;;;;;;;;13.12;66.73;100486.81;4910653;29;20318;-82
2023/04/21 01:32:58;;;;;;;;;;;;;;;13.07;67.54;100481.53;4911946;29;19919;-82
2023/04/21 01:35:50;;;;;;;;;;;;;;;13.15;67.24;100479.91;4912462;29;19923;-83
2023/04/21 01:38:42;;;;;;;;;;;;;;;13.09;67.20;100483.94;4892376;29;19920;-82
2023/04/21 01:41:34;;;;;;;;;;;;;;;13.07;66.93;100480.75;4907392;29;19919;-81
2023/04/21 01:44:26;;;;;;;;;;;;;;;13.03;66.72;100472.44;4893248;29;19924;-81
2023/04/21 01:47:16;;;;;;;;;;;;;;;13.06;66.43;100471.75;4918263;29;19923;-82
2023/04/21 01:50:08;;;;;;;;;;;;;;;13.07;67.05;100469.81;4922870;29;19919;-82
2023/04/21 01:53:00;;;;;;;;;;;;;;;12.97;67.19;100471.06;4925996;29;19931;-81
2023/04/21 01:55:52;;;;;;;;;;;;;;;12.86;67.75;100469.88;4924557;29;20395;-81
2023/04/21 01:58:44;;;;;;;;;;;;;;;12.96;68.23;100468.66;4920654;29;19919;-82
2023/04/21 02:01:34;;;;;;;;;;;;;;;12.98;67.78;100477.31;4917967;29;19919;-82
2023/04/21 02:04:26;;;;;;;;;;;;;;;12.96;68.29;100471.38;4907092;29;19919;-82
2023/04/21 02:07:18;;;;;;;;;;;;;;;13.03;67.91;100479.81;4911489;29;19931;-82
2023/04/21 02:10:11;;;;;;;;;;;;;;;12.98;68.19;100477.31;4906698;29;20394;-81
2023/04/21 02:13:05;;;;;;;;;;;;;;;13.01;68.24;100482.09;4907766;29;19920;-81
2023/04/21 02:15:59;;;;;;;;;;;;;;;12.94;69.06;100481.84;4892114;29;20299;-81
2023/04/21 02:18:50;;;;;;;;;;;;;;;12.85;69.41;100482.72;4896100;29;19924;-81
2023/04/21 02:21:40;;;;;;;;;;;;;;;12.85;68.89;100484.66;4911775;29;19920;-81
2023/04/21 02:24:32;;;;;;;;;;;;;;;12.82;68.90;100482.59;4909785;29;19924;-81
2023/04/21 02:27:24;;;;;;;;;;;;;;;12.79;68.98;100481.34;4909359;29;19931;-81
2023/04/21 02:30:16;;;;;;;;;;;;;;;12.61;69.19;100463.53;4923171;29;19920;-81
2023/04/21 02:33:06;;;;;;;;;;;;;;;12.74;69.93;100481.56;4905682;29;19938;-80
2023/04/21 02:36:00;;;;;;;;;;;;;;;12.75;69.36;100483.13;4892332;29;19920;-80
2023/04/21 02:38:52;;;;;;;;;;;;;;;12.80;69.38;100480.19;4889067;29;19920;-80
2023/04/21 02:41:42;;;;;;;;;;;;;;;12.74;69.97;100481.56;4904118;29;19927;-80
2023/04/21 02:44:34;;;;;;;;;;;;;;;12.80;69.12;100484.84;4914112;29;19919;-82
2023/04/21 02:47:26;;;;;;;;;;;;;;;12.83;69.13;100489.66;4915228;29;20374;-82
2023/04/21 02:50:19;;;;;;;;;;;;;;;12.79;69.45;100497.72;4917080;29;19924;-81
2023/04/21 02:53:11;;;;;;;;;;;;;;;12.75;69.86;100496.78;4918824;29;19919;-81
2023/04/21 02:56:03;;;;;;;;;;;;;;;12.69;70.71;100498.13;4902429;29;19920;-81
2023/04/21 02:58:55;;;;;;;;;;;;;;;12.71;70.48;100506.78;4911873;29;19919;-80
2023/04/21 03:01:47;;;;;;;;;;;;;;;12.67;70.52;100505.03;4919961;29;20336;-81
2023/04/21 03:04:39;;;;;;;;;;;;;;;12.70;69.93;100504.38;4897439;29;19939;-81
2023/04/21 03:07:31;;;;;;;;;;;;;;;12.75;69.77;100507.69;4910301;29;19923;-81
2023/04/21 03:10:23;;;;;;;;;;;;;;;12.75;70.31;100502.22;4929047;29;19927;-82
2023/04/21 03:13:16;;;;;;;;;;;;;;;12.77;69.57;100494.53;4914725;29;20607;-82
2023/04/21 03:16:05;;;;;;;;;;;;;;;12.77;69.42;100501.91;4910141;29;19920;-81
2023/04/21 03:18:58;;;;;;;;;;;;;;;12.83;69.23;100509.56;4918572;29;19919;-81
2023/04/21 03:21:51;;;;;;;;;;;;;;;12.89;68.96;100501.16;4916122;29;20287;-80
2023/04/21 03:24:43;;;;;;;;;;;;;;;12.93;69.01;100504.81;4908219;29;20294;-81
2023/04/21 03:27:32;;;;;;;;;;;;;;;12.93;69.98;100496.63;4911276;29;19924;-80
2023/04/21 03:30:24;;;;;;;;;;;;;;;12.92;70.27;100511.41;4906922;29;19920;-81
2023/04/21 03:33:16;;;;;;;;;;;;;;;12.92;70.72;100505.94;4905951;29;19919;-81
2023/04/21 03:36:08;;;;;;;;;;;;;;;12.95;70.72;100497.91;4904215;29;19919;-81
2023/04/21 03:39:01;;;;;;;;;;;;;;;12.97;70.13;100505.72;4903573;29;19919;-81
2023/04/21 03:41:53;;;;;;;;;;;;;;;12.82;70.62;100504.44;4925079;29;19919;-81
2023/04/21 03:44:45;;;;;;;;;;;;;;;12.85;70.45;100510.00;4911839;29;19919;-81
2023/04/21 03:47:37;;;;;;;;;;;;;;;12.86;70.21;100503.41;4911886;29;19924;-81
2023/04/21 03:50:29;;;;;;;;;;;;;;;12.71;71.39;100501.31;4928337;29;19919;-81
2023/04/21 03:53:21;;;;;;;;;;;;;;;12.81;71.00;100500.91;4925022;29;19919;-82
2023/04/21 03:56:13;;;;;;;;;;;;;;;12.85;71.08;100501.81;4925189;29;19920;-82
2023/04/21 03:59:05;;;;;;;;;;;;;;;12.89;71.18;100509.34;4913601;29;19920;-83
2023/04/21 04:01:57;;;;;;;;;;;;;;;12.85;70.68;100507.28;4913497;29;19920;-83
2023/04/21 04:04:49;;;;;;;;;;;;;;;12.80;70.35;100510.22;4919380;29;20426;-83
2023/04/21 04:07:41;;;;;;;;;;;;;;;12.86;70.15;100513.53;4907726;29;19924;-83
2023/04/21 04:10:33;;;;;;;;;;;;;;;12.88;70.05;100510.47;4913865;29;19919;-83
2023/04/21 04:13:25;;;;;;;;;;;;;;;12.76;69.92;100512.03;4923535;29;19919;-84
2023/04/21 04:16:17;;;;;;;;;;;;;;;12.77;69.92;100513.63;4918478;29;19920;-84
2023/04/21 04:19:09;;;;;;;;;;;;;;;12.67;70.42;100516.75;4906336;29;20473;-83
2023/04/21 04:22:04;;;;;;;;;;;;;;;12.66;70.11;100517.88;4912113;29;20295;-83
2023/04/21 04:24:56;;;;;;;;;;;;;;;12.64;70.30;100514.72;4907561;29;19920;-84
2023/04/21 04:27:48;;;;;;;;;;;;;;;12.64;70.19;100522.91;4913362;29;19923;-84
2023/04/21 04:30:40;;;;;;;;;;;;;;;12.63;70.26;100517.75;4920468;29;19920;-84
2023/04/21 04:33:32;;;;;;;;;;;;;;;12.60;70.35;100530.13;4930279;29;19920;-83
2023/04/21 04:36:24;;;;;;;;;;;;;;;12.58;70.38;100532.41;4914584;29;19919;-83
2023/04/21 04:39:16;;;;;;;;;;;;;;;12.52;70.75;100538.38;4914336;29;19919;-83
2023/04/21 04:42:11;;;;;;;;;;;;;;;12.49;70.64;100536.34;4918011;29;19919;-83
2023/04/21 04:45:04;;;;;;;;;;;;;;;12.49;71.41;100533.59;4917835;29;19919;-83
2023/04/21 04:47:56;;;;;;;;;;;;;;;12.54;71.22;100538.88;4913318;29;19923;-83
2023/04/21 04:50:48;;;;;;;;;;;;;;;12.59;71.13;100535.94;4919418;29;19920;-83
2023/04/21 04:53:37;;;;;;;;;;;;;;;12.65;72.33;100550.94;4909184;29;19919;-84
2023/04/21 04:56:27;;;;;;;;;;;;;;;12.52;71.71;100547.38;4910340;29;19924;-84
2023/04/21 04:59:16;;;;;;;;;;;;;;;12.62;71.25;100549.69;4914888;29;19920;-82
2023/04/21 05:02:03;;;;;;;;;;;;;;;12.37;72.80;100550.69;4929860;29;19919;-83
2023/04/21 05:04:53;;;;;;;;;;;;;;;12.41;72.74;100551.63;4949292;29;19919;-82
2023/04/21 05:07:45;;;;;;;;;;;;;;;12.52;71.80;100552.81;4912083;29;19924;-83
2023/04/21 05:10:35;;;;;;;;;;;;;;;12.64;71.48;100560.28;4917446;29;19920;-82
2023/04/21 05:13:27;;;;;;;;;;;;;;;12.68;71.48;100564.75;4914566;29;19919;-83
2023/04/21 05:16:16;;;;;;;;;;;;;;;12.77;71.39;100570.13;4913054;29;19919;-82
2023/04/21 05:19:08;;;;;;;;;;;;;;;12.80;71.52;100569.44;4911792;29;19919;-82
2023/04/21 05:21:59;;;;;;;;;;;;;;;12.79;72.11;100571.41;4898579;29;20299;-81
2023/04/21 05:24:51;;;;;;;;;;;;;;;12.82;72.59;100573.44;4914704;29;20310;-80
2023/04/21 05:27:43;;;;;;;;;;;;;;;12.83;72.86;100572.31;4890280;29;19923;-81
2023/04/21 05:30:35;;;;;;;;;;;;;;;12.80;73.04;100580.34;4911680;29;19920;-82
2023/04/21 05:33:22;;;;;;;;;;;;;;;12.76;73.88;100585.69;4924748;29;20406;-83
2023/04/21 05:36:14;;;;;;;;;;;;;;;12.75;74.14;100584.09;4915713;29;19927;-83
2023/04/21 05:39:06;;;;;;;;;;;;;;;12.81;73.96;100588.22;4924083;29;20299;-82
2023/04/21 05:41:58;;;;;;;;;;;;;;;12.83;73.78;100585.16;4925460;29;21222;-82
2023/04/21 05:44:48;;;;;;;;;;;;;;;12.90;72.96;100584.63;4913485;29;19923;-83
2023/04/21 05:47:40;;;;;;;;;;;;;;;12.96;72.51;100588.75;4884212;29;19928;-83
2023/04/21 05:50:32;;;;;;;;;;;;;;;13.02;73.47;100590.13;4912524;29;19923;-84
2023/04/21 05:53:27;;;;;;;;;;;;;;;13.09;73.23;100590.41;4893510;29;19919;-84
2023/04/21 05:56:19;;;;;;;;;;;;;;;13.01;74.72;100575.69;4913306;29;19923;-81
2023/04/21 05:59:11;;;;;;;;;;;;;;;13.22;75.24;100592.06;4916900;29;20302;-82
2023/04/21 06:02:01;;;;;;;;;;;;;;;13.31;74.83;100594.75;4899072;29;19919;-82
2023/04/21 06:04:53;;;;;;;;;;;;;;;13.41;74.68;100600.56;4927278;29;19919;-81
2023/04/21 06:07:45;;;;;;;;;;;;;;;13.42;73.89;100590.44;4912093;29;19923;-83
2023/04/21 06:10:36;;;;;;;;;;;;;;;13.43;72.83;100592.84;4905580;29;19924;-88
2023/04/21 06:13:26;;;;;;;;;;;;;;;13.48;71.74;100591.81;4903159;29;19927;-88
2023/04/21 06:16:18;;;;;;;;;;;;;;;13.51;71.58;100589.22;4900819;29;19927;-88
2023/04/21 06:19:10;;;;;;;;;;;;;;;13.53;72.02;100586.16;4908373;29;19923;-86
2023/04/21 06:21:59;;;;;;;;;;;;;;;13.59;71.48;100595.72;4912778;29;19919;-87
2023/04/21 06:24:52;;;;;;;;;;;;;;;13.62;70.65;100595.03;4915988;29;19923;-87
2023/04/21 06:27:44;;;;;;;;;;;;;;;13.65;70.89;100595.19;4910350;29;20311;-86
2023/04/21 06:30:36;;;;;;;;;;;;;;;13.71;71.10;100598.50;4924953;29;19919;-86
2023/04/21 06:33:28;;;;;;;;;;;;;;;13.80;71.20;100601.13;4907960;29;19919;-80
2023/04/21 06:36:20;;;;;;;;;;;;;;;13.89;70.72;100608.09;4913024;29;19927;-79
2023/04/21 06:39:12;;;;;;;;;;;;;;;14.02;70.10;100606.13;4903862;29;20375;-77
2023/04/21 06:42:04;;;;;;;;;;;;;;;14.10;68.93;100613.47;4900292;29;19919;-79
2023/04/21 06:45:01;;;;;;;;;;;;;;;14.15;67.38;100610.50;4903543;29;19924;-79
2023/04/21 06:47:53;;;;;;;;;;;;;;;14.25;66.61;100607.31;4903871;29;19923;-79
2023/04/21 06:50:45;;;;;;;;;;;;;;;14.33;66.50;100619.25;4891899;29;20302;-79
2023/04/21 06:53:37;;;;;;;;;;;;;;;14.35;66.43;100615.06;4893175;29;20299;-79
2023/04/21 06:56:28;;;;;;;;;;;;;;;14.46;67.00;100613.47;4901993;29;19924;-76
2023/04/21 06:59:20;;;;;;;;;;;;;;;15.08;63.58;100612.22;4909466;29;19931;-76
2023/04/21 07:02:12;;;;;;;;;;;;;;;16.01;61.65;100610.00;4900832;29;19924;-76
2023/04/21 07:05:04;;;;;;;;;;;;;;;16.41;59.53;100613.34;4888623;29;19920;-76
2023/04/21 07:07:58;;;;;;;;;;;;;;;16.76;58.36;100616.13;4886225;29;20306;-76
2023/04/21 07:10:50;;;;;;;;;;;;;;;16.84;57.82;100614.34;4878413;29;19924;-76
2023/04/21 07:13:42;;;;;;;;;;;;;;;17.10;57.86;100617.25;4899418;29;19919;-76
2023/04/21 07:16:34;;;;;;;;;;;;;;;17.12;56.60;100620.41;4890808;29;20298;-76
2023/04/21 07:19:25;;;;;;;;;;;;;;;16.83;57.86;100624.53;4912109;29;19923;-76
2023/04/21 07:22:17;;;;;;;;;;;;;;;16.55;58.51;100624.66;4902285;29;19919;-76
2023/04/21 07:25:09;;;;;;;;;;;;;;;16.68;58.72;100626.16;4901506;29;19933;-76
2023/04/21 07:28:01;;;;;;;;;;;;;;;16.97;57.59;100629.50;4900295;29;19923;-77
2023/04/21 07:30:53;;;;;;;;;;;;;;;16.95;57.33;100627.16;4913701;29;19923;-77
2023/04/21 07:33:45;;;;;;;;;;;;;;;17.60;54.92;100632.78;4891329;29;20392;-77
2023/04/21 07:36:37;;;;;;;;;;;;;;;17.43;56.25;100624.97;4892836;29;19923;-78
2023/04/21 07:39:29;;;;;;;;;;;;;;;17.81;55.75;100635.94;4894549;29;20453;-77
2023/04/21 07:42:21;;;;;;;;;;;;;;;18.12;54.33;100640.41;4899365;29;19927;-77
2023/04/21 07:45:13;;;;;;;;;;;;;;;19.19;51.04;100640.03;4914093;29;19919;-77
2023/04/21 07:48:05;;;;;;;;;;;;;;;19.11;49.04;100641.09;4900101;29;20389;-77
2023/04/21 07:50:57;;;;;;;;;;;;;;;19.63;48.22;100649.25;4896886;29;20302;-77
2023/04/21 07:53:46;;;;;;;;;;;;;;;19.87;46.50;100650.66;4914578;29;20307;-77
2023/04/21 07:56:38;;;;;;;;;;;;;;;20.91;43.75;100644.78;4911979;29;19919;-77
2023/04/21 07:59:30;;;;;;;;;;;;;;;19.90;46.46;100647.16;4896933;29;20334;-76
2023/04/21 08:02:22;;;;;;;;;;;;;;;19.76;48.65;100657.25;4896821;29;19920;-76
2023/04/21 08:05:14;;;;;;;;;;;;;;;19.33;49.29;100655.94;4896997;29;19919;-77
2023/04/21 08:08:06;;;;;;;;;;;;;;;18.93;49.75;100654.66;4901226;29;19923;-77
2023/04/21 08:10:57;;;;;;;;;;;;;;;18.36;50.89;100651.03;4896818;29;20171;-77
2023/04/21 08:13:47;;;;;;;;;;;;;;;18.03;50.73;100659.09;4909199;29;19919;-77
2023/04/21 08:16:39;;;;;;;;;;;;;;;17.74;52.66;100657.81;4896302;29;20391;-76
2023/04/21 08:19:31;;;;;;;;;;;;;;;17.51;54.04;100654.19;4896153;29;20398;-77
2023/04/21 08:22:22;;;;;;;;;;;;;;;17.38;53.29;100661.00;4896634;29;19919;-77
2023/04/21 08:25:12;;;;;;;;;;;;;;;17.32;53.54;100657.72;4896857;29;19919;-76
2023/04/21 08:28:04;;;;;;;;;;;;;;;17.25;53.62;100665.06;4905262;29;19923;-76
2023/04/21 08:30:56;;;;;;;;;;;;;;;17.16;54.17;100672.72;4900256;29;19919;-77
2023/04/21 08:33:48;;;;;;;;;;;;;;;17.05;54.05;100675.22;4900194;29;19919;-76
2023/04/21 08:36:40;;;;;;;;;;;;;;;17.17;54.19;100672.34;4899768;29;19923;-77
2023/04/21 08:39:32;;;;;;;;;;;;;;;17.19;53.01;100677.47;4908208;29;20310;-77
2023/04/21 08:42:24;;;;;;;;;;;;;;;17.15;53.54;100676.63;4911788;29;19927;-77
2023/04/21 08:45:15;;;;;;;;;;;;;;;17.25;53.79;100676.84;4899812;29;19920;-77
2023/04/21 08:48:07;;;;;;;;;;;;;;;17.29;53.13;100679.66;4900784;29;19923;-76
2023/04/21 08:50:59;;;;;;;;;;;;;;;17.07;53.42;100679.19;4900999;29;19920;-77
2023/04/21 08:53:52;;;;;;;;;;;;;;;17.03;53.29;100683.81;4899734;29;19920;-77
2023/04/21 08:56:44;;;;;;;;;;;;;;;17.05;53.68;100678.78;4899256;29;20294;-77
2023/04/21 08:59:33;;;;;;;;;;;;;;;17.10;53.99;100678.50;4921478;29;19919;-77
2023/04/21 09:02:25;;;;;;;;;;;;;;;17.12;52.40;100680.09;4891788;29;19923;-77
2023/04/21 09:05:23;;;;;;;;;;;;;;;17.16;52.88;100686.47;4899681;29;19920;-77
2023/04/21 09:08:19;;;;;;;;;;;;;;;17.16;53.49;100686.47;4898974;29;19923;-77
2023/04/21 09:11:15;;;;;;;;;;;;;;;17.05;52.93;100681.53;4899397;29;19923;-77
2023/04/21 09:14:07;;;;;;;;;;;;;;;17.09;53.33;100676.09;4899260;29;19919;-77
2023/04/21 09:17:05;;;;;;;;;;;;;;;17.29;53.09;100674.16;4899127;29;19924;-77
2023/04/21 09:19:57;;;;;;;;;;;;;;;17.32;52.73;100679.72;4911407;29;19920;-77
2023/04/21 09:22:48;;;;;;;;;;;;;;;17.31;52.39;100677.34;4894708;29;19920;-77
2023/04/21 09:25:37;;;;;;;;;;;;;;;17.29;51.91;100680.47;4900504;29;19920;-78
2023/04/21 09:28:32;;;;;;;;;;;;;;;17.62;52.05;100681.94;4910647;29;19924;-77
2023/04/21 09:31:27;;;;;;;;;;;;;;;17.78;52.54;100675.16;4910483;29;19919;-77
2023/04/21 09:34:28;;;;;;;;;;;;;;;17.85;52.24;100669.81;4906463;29;19919;-77
2023/04/21 09:37:23;;;;;;;;;;;;;;;18.32;51.33;100679.66;4908179;29;19919;-77
2023/04/21 09:40:18;;;;;;;;;;;;;;;18.28;50.52;100676.06;4898093;29;19919;-77
2023/04/21 09:43:10;;;;;;;;;;;;;;;18.26;51.52;100681.13;4901346;29;19923;-80
2023/04/21 09:46:04;;;;;;;;;;;;;;;18.04;50.81;100676.41;4902759;29;19919;-80
2023/04/21 09:48:54;;;;;;;;;;;;;;;17.93;51.87;100679.75;4903306;29;19924;-80
2023/04/21 09:51:46;;;;;;;;;;;;;;;17.97;49.90;100676.31;4897786;29;20325;-79
2023/04/21 09:54:43;;;;;;;;;;;;;;;18.01;51.32;100682.66;4905454;29;19919;-80
2023/04/21 09:57:33;;;;;;;;;;;;;;;17.79;50.65;100668.50;4899199;29;19920;-80
2023/04/21 10:00:27;;;;;;;;;;;;;;;17.81;50.59;100673.66;4888685;29;19920;-80
2023/04/21 10:03:20;;;;;;;;;;;;;;;22.31;41.57;100678.03;4900925;29;19919;-78
2023/04/21 10:06:10;;;;;;;;;;;;;;;19.88;45.65;100670.78;4901770;29;19919;-80
2023/04/21 10:09:02;;;;;;;;;;;;;;;21.26;42.24;100664.34;4898907;29;19927;-80
2023/04/21 10:11:56;;;;;;;;;;;;;;;19.56;46.11;100657.44;4902156;29;19919;-80
2023/04/21 10:14:53;;;;;;;3.30;2.10;;;;;;;19.52;46.96;100656.59;4894159;29;20898;-79
2023/04/21 10:17:48;;;;;;;4.05;3.00;;;;;;;25.77;34.35;100665.81;4881793;29;20052;-80
2023/04/21 10:21:02;;;;;;;15.57;3.10;;;;;;;30.12;26.35;100669.00;4882998;29;20044;-80
2023/04/21 10:23:56;;;;;;;4.05;2.47;;;;;;;30.01;26.77;100662.94;4902154;29;20056;-80
2023/04/21 10:26:51;;;;;;;2.63;1.58;;;;;;;32.43;22.28;100673.25;4896341;29;20047;-81
2023/04/21 10:29:46;;;;;;;4.25;1.92;;;;;;;34.82;20.57;100675.75;4915853;29;20426;-78
2023/04/21 10:32:44;;;;;;;;;;;;;;;32.47;21.77;100673.09;4904496;29;20048;-78
2023/04/21 10:36:25;;;;;;;2.33;2.00;;;;;;;32.34;22.96;100664.03;4895209;29;19915;-79
2023/04/21 10:39:34;;;;;;;1.77;1.55;;;;;;;32.49;21.74;100668.59;4881215;29;20052;-78
2023/04/21 10:42:28;;;;;;;2.50;2.28;;;;;;;32.73;21.60;100668.78;4893644;29;20047;-78
2023/04/21 10:45:21;;;;;;;2.22;1.88;;;;;;;30.88;22.75;100655.53;4903010;29;20546;-78
2023/04/21 10:48:16;;;;;;;1.95;1.75;;;;;;;31.68;22.48;100663.47;4905006;29;20416;-78
2023/04/21 10:51:14;;;;;;;2.17;1.35;;;;;;;30.41;22.97;100660.41;4902383;29;20051;-78
2023/04/21 10:54:09;;;;;;;2.45;1.48;;;;;;;28.36;26.03;100658.78;4910788;29;20071;-78
2023/04/21 10:57:06;;;;;;;1.98;1.40;;;;;;;32.29;21.02;100659.00;4906880;29;20059;-78
2023/04/21 11:00:01;;;;;;;4.18;1.90;;;;;;;29.87;24.16;100650.13;4900875;29;20060;-78
2023/04/21 11:03:01;;;;;;;2.13;1.70;;;;;;;32.03;21.41;100650.78;4904541;29;20051;-79
2023/04/21 11:05:55;;;;;;;2.03;1.73;;;;;;;27.82;26.32;100658.50;4912085;29;20056;-78
2023/04/21 11:08:58;;;;;;;;;;;;;;;30.43;23.43;100657.91;4900668;29;20404;-78
2023/04/21 11:12:01;;;;;;;4.80;2.15;;;;;;;29.05;25.40;100656.59;4902064;29;19916;-78
2023/04/21 11:14:55;;;;;;;1.90;1.42;;;;;;;30.96;23.47;100659.69;4897662;29;20048;-78
2023/04/21 11:17:50;;;;;;;3.72;2.47;;;;;;;32.59;20.82;100658.91;4895415;29;20047;-79
2023/04/21 11:20:48;;;;;;;2.75;2.03;;;;;;;27.01;27.76;100656.22;4900714;29;20051;-79
2023/04/21 11:23:42;;;;;;;2.92;2.15;;;;;;;22.17;33.76;100646.41;4889991;29;20067;-78
2023/04/21 11:26:41;;;;;;;1.98;1.60;;;;;;;29.79;24.14;100651.59;4904387;29;20048;-78
2023/04/21 11:29:34;;;;;;;2.88;1.80;;;;;;;30.25;24.72;100646.53;4902312;29;20051;-79
2023/04/21 11:32:28;;;;;;;4.13;2.47;;;;;;;32.43;21.98;100650.75;4910331;29;20044;-78
2023/04/21 11:35:22;;;;;;;2.08;1.65;;;;;;;28.93;23.66;100652.50;4902170;29;20527;-78
2023/04/21 11:38:17;;;;;;;11.15;1.83;;;;;;;31.07;22.13;100652.91;4906150;29;20035;-79
2023/04/21 11:41:09;;;;;;;;;;;;;;;29.63;24.34;100655.28;4904305;29;20511;-78
2023/04/21 11:44:04;;;;;;;3.10;2.17;;;;;;;33.32;20.27;100663.75;4890429;29;19915;-78
2023/04/21 11:46:58;;;;;;;1.70;1.20;;;;;;;31.64;22.27;100648.75;4919348;29;20048;-77
2023/04/21 11:50:09;;;;;;;2.03;1.30;;;;;;;33.24;20.14;100656.88;4898837;29;20052;-80
2023/04/21 11:53:05;;;;;;;5.38;1.40;;;;;;;34.12;18.99;100647.00;4894960;29;20059;-77
2023/04/21 11:56:00;;;;;;;1.95;1.45;;;;;;;32.64;21.29;100654.69;4896716;29;20420;-77
2023/04/21 11:58:54;;;;;;;4.43;2.42;;;;;;;32.84;21.08;100651.41;4890374;29;20048;-78
2023/04/21 12:01:51;;;;;;;2.55;1.63;;;;;;;32.09;21.49;100648.16;4885128;29;20044;-79
2023/04/21 12:04:43;;;;;;;2.58;1.73;;;;;;;34.56;18.92;100652.06;4898535;29;20075;-79
2023/04/21 12:07:36;;;;;;;2.72;2.08;;;;;;;34.10;19.65;100655.16;4898430;29;20063;-79
2023/04/21 12:10:32;;;;;;;1.95;1.40;;;;;;;31.18;21.48;100648.47;4922736;29;20055;-78
2023/04/21 12:13:31;;;;;;;3.95;1.40;;;;;;;28.71;24.82;100652.28;4909627;29;20043;-79
2023/04/21 12:16:25;;;;;;;10.60;1.75;;;;;;;28.53;24.33;100643.56;4907962;29;20050;-78
2023/04/21 12:19:36;;;;;;;1.90;1.45;;;;;;;30.86;22.73;100655.22;4909460;29;21332;-79
2023/04/21 12:22:30;;;;;;;2.97;2.15;;;;;;;30.85;22.86;100639.63;4900770;29;20527;-79
2023/04/21 12:25:25;;;;;;;2.72;1.98;;;;;;;30.19;23.01;100640.69;4905584;29;20052;-78
2023/04/21 12:28:19;;;;;;;3.08;2.08;;;;;;;29.82;23.32;100644.31;4904103;29;20075;-80
2023/04/21 12:31:12;;;;;;;3.33;1.95;;;;;;;31.20;22.92;100653.63;4910040;29;20046;-80
2023/04/21 12:34:06;;;;;;;2.65;2.15;;;;;;;30.81;22.25;100647.41;4904771;29;20063;-80
2023/04/21 12:36:58;;;;;;;2.78;1.90;;;;;;;26.58;27.51;100635.84;4912289;29;20047;-79
2023/04/21 12:39:53;;;;;;;2.78;2.00;;;;;;;28.72;26.18;100641.91;4903878;29;20549;-80
2023/04/21 12:42:45;;;;;;;;;;;;;;;29.39;25.46;100651.22;4888191;29;20056;-80
2023/04/21 12:45:39;;;;;;;3.08;2.22;;;;;;;29.66;26.30;100645.97;4885200;29;19916;-79
2023/04/21 12:48:34;;;;;;;3.28;2.35;;;;;;;31.44;22.54;100649.88;4906443;29;20048;-81
2023/04/21 12:51:28;;;;;;;5.03;2.47;;;;;;;30.92;22.90;100647.00;4885352;29;20048;-81
2023/04/21 12:54:23;;;;;;;4.55;2.17;;;;;;;30.44;23.99;100635.03;4886492;29;20543;-80
2023/04/21 12:57:18;;;;;;;2.72;2.15;;;;;;;29.09;24.73;100649.66;4903852;29;20056;-79
2023/04/21 13:00:13;;;;;;;7.47;3.28;;;;;;;29.22;25.03;100641.28;4908182;29;20409;-81
2023/04/21 13:03:08;;;;;;;4.20;2.75;;;;;;;26.94;26.19;100631.22;4900247;29;20048;-80
2023/04/21 13:06:00;;;;;;;7.28;2.78;;;;;;;26.08;30.78;100628.31;4890693;29;20139;-79
2023/04/21 13:08:56;;;;;;;3.58;2.53;;;;;;;29.44;25.07;100619.84;4899552;29;20552;-80
2023/04/21 13:11:50;;;;;;;3.90;2.65;;;;;;;31.21;23.79;100629.91;4898399;29;20043;-80
2023/04/21 13:14:45;;;;;;;2.33;2.08;;;;;;;28.77;24.04;100618.97;4891277;29;20064;-80
2023/04/21 13:17:40;;;;;;;3.40;2.47;;;;;;;30.35;23.86;100622.94;4897405;29;20531;-80
2023/04/21 13:20:32;;;;;;;3.58;2.28;;;;;;;30.80;23.46;100619.75;4899746;29;20055;-80
2023/04/21 13:23:26;;;;;;;3.25;2.30;;;;;;;32.02;21.25;100615.44;4884624;29;20052;-80
2023/04/21 13:26:21;;;;;;;2.22;1.80;;;;;;;32.57;20.52;100621.19;4884329;29;20052;-81
2023/04/21 13:29:15;;;;;;;2.95;1.83;;;;;;;33.41;19.70;100621.44;4905077;29;20056;-80
2023/04/21 13:32:11;;;;;;;4.55;1.45;;;;;;;33.30;20.52;100635.25;4889361;29;20055;-79
2023/04/21 13:35:07;;;;;;;3.60;1.52;;;;;;;28.16;26.34;100621.75;4902874;29;20048;-81
2023/04/21 13:38:01;;;;;;;2.20;1.48;;;;;;;25.65;30.38;100603.09;4906318;29;20047;-81
2023/04/21 13:40:56;;;;;;;2.25;1.67;;;;;;;23.76;33.43;100605.50;4918804;29;20047;-80
2023/04/21 13:43:48;;;;;;;3.42;1.58;;;;;;;23.03;35.24;100606.25;4908671;29;20051;-80
2023/04/21 13:46:43;;;;;;;2.65;1.60;;;;;;;22.93;36.17;100603.53;4900527;29;20043;-79
2023/04/21 13:49:37;;;;;;;1.70;1.10;;;;;;;22.64;35.67;100602.81;4900264;29;20049;-81
2023/04/21 13:52:32;;;;;;;1.67;1.10;;;;;;;21.95;36.36;100594.94;4891401;29;20059;-79
2023/04/21 13:55:27;;;;;;;1.35;1.08;;;;;;;22.13;36.35;100600.50;4897406;29;20460;-80
2023/04/21 13:58:21;;;;;;;1.27;1.17;;;;;;;21.26;39.52;100599.94;4902363;29;20047;-78
2023/04/21 14:01:16;;;;;;;2.13;1.08;;;;;;;21.42;39.93;100596.81;4903462;29;20558;-79
2023/04/21 14:04:08;;;;;;;0.93;0.88;;;;;;;22.72;37.09;100596.06;4902121;29;20067;-80
2023/04/21 14:07:03;;;;;;;3.88;1.02;;;;;;;22.91;37.77;100595.59;4901497;29;20071;-79
2023/04/21 14:09:57;;;;;;;1.13;1.02;;;;;;;22.89;37.08;100586.91;4904979;29;20051;-80
2023/04/21 14:12:52;;;;;;;1.50;1.20;;;;;;;22.59;36.73;100589.34;4914626;29;20052;-80
2023/04/21 14:15:47;;;;;;;2.03;0.93;;;;;;;22.09;37.96;100581.13;4905966;29;20040;-80
2023/04/21 14:18:39;;;;;;;5.53;1.55;;;;;;;21.92;37.16;100579.09;4898049;29;20052;-80
2023/04/21 14:21:33;;;;;;;5.85;1.27;;;;;;;22.69;36.38;100571.91;4904250;29;20055;-78
2023/04/21 14:24:28;;;;;;;3.10;1.40;;;;;;;22.63;36.52;100572.69;4904430;29;20055;-79